sensor_id;sensor_type;location;lat;lon;timestamp;P1;durP1;ratioP1;P2;durP2;ratioP2
58516;SDS011;44308;50.810;0.284;2022-07-29T00:01:06;8.25;;;3.83;;
58516;SDS011;44308;50.810;0.284;2022-07-29T00:03:32;4.97;;;2.97;;
58516;SDS011;44308;50.810;0.284;2022-07-29T00:05:58;5.07;;;3.08;;
58516;SDS011;44308;50.810;0.284;2022-07-29T00:08:24;7.88;;;3.33;;
58516;SDS011;44308;50.810;0.284;2022-07-29T00:10:50;11.85;;;4.05;;
58516;SDS011;44308;50.810;0.284;2022-07-29T00:16:00;6.00;;;2.53;;
58516;SDS011;44308;50.810;0.284;2022-07-29T00:18:26;5.43;;;3.17;;
58516;SDS011;44308;50.810;0.284;2022-07-29T00:20:51;7.88;;;3.65;;
58516;SDS011;44308;50.810;0.284;2022-07-29T00:23:18;4.60;;;3.13;;
58516;SDS011;44308;50.810;0.284;2022-07-29T00:25:44;8.63;;;3.05;;
58516;SDS011;44308;50.810;0.284;2022-07-29T00:28:10;7.50;;;2.95;;
58516;SDS011;44308;50.810;0.284;2022-07-29T00:30:35;4.20;;;2.63;;
58516;SDS011;44308;50.810;0.284;2022-07-29T00:33:01;5.82;;;3.33;;
58516;SDS011;44308;50.810;0.284;2022-07-29T00:35:27;4.80;;;2.70;;
58516;SDS011;44308;50.810;0.284;2022-07-29T00:38:15;5.70;;;3.65;;
58516;SDS011;44308;50.810;0.284;2022-07-29T00:40:42;6.40;;;3.40;;
58516;SDS011;44308;50.810;0.284;2022-07-29T00:43:08;7.32;;;3.58;;
58516;SDS011;44308;50.810;0.284;2022-07-29T00:45:34;8.50;;;3.05;;
58516;SDS011;44308;50.810;0.284;2022-07-29T00:48:00;7.85;;;3.00;;
58516;SDS011;44308;50.810;0.284;2022-07-29T00:50:28;5.53;;;3.60;;
58516;SDS011;44308;50.810;0.284;2022-07-29T00:52:54;10.88;;;3.35;;
58516;SDS011;44308;50.810;0.284;2022-07-29T00:55:20;4.70;;;3.35;;
58516;SDS011;44308;50.810;0.284;2022-07-29T00:57:46;6.07;;;2.88;;
58516;SDS011;44308;50.810;0.284;2022-07-29T01:00:14;5.60;;;3.15;;
58516;SDS011;44308;50.810;0.284;2022-07-29T01:02:43;6.88;;;3.35;;
58516;SDS011;44308;50.810;0.284;2022-07-29T01:05:09;6.45;;;3.30;;
58516;SDS011;44308;50.810;0.284;2022-07-29T01:07:37;4.32;;;3.10;;
58516;SDS011;44308;50.810;0.284;2022-07-29T01:10:05;4.80;;;2.95;;
58516;SDS011;44308;50.810;0.284;2022-07-29T01:12:33;4.72;;;3.20;;
58516;SDS011;44308;50.810;0.284;2022-07-29T01:15:03;13.15;;;3.47;;
58516;SDS011;44308;50.810;0.284;2022-07-29T01:26:15;13.70;;;3.63;;
58516;SDS011;44308;50.810;0.284;2022-07-29T01:28:48;8.45;;;2.97;;
58516;SDS011;44308;50.810;0.284;2022-07-29T01:31:35;6.65;;;3.42;;
58516;SDS011;44308;50.810;0.284;2022-07-29T01:34:11;5.50;;;2.92;;
58516;SDS011;44308;50.810;0.284;2022-07-29T01:36:48;5.10;;;3.40;;
58516;SDS011;44308;50.810;0.284;2022-07-29T01:39:26;6.97;;;3.15;;
58516;SDS011;44308;50.810;0.284;2022-07-29T01:41:58;6.05;;;3.83;;
58516;SDS011;44308;50.810;0.284;2022-07-29T01:44:30;8.43;;;3.47;;
58516;SDS011;44308;50.810;0.284;2022-07-29T01:47:14;7.35;;;3.33;;
58516;SDS011;44308;50.810;0.284;2022-07-29T01:49:45;8.27;;;3.25;;
58516;SDS011;44308;50.810;0.284;2022-07-29T01:52:36;5.75;;;3.00;;
58516;SDS011;44308;50.810;0.284;2022-07-29T01:55:04;17.63;;;3.55;;
58516;SDS011;44308;50.810;0.284;2022-07-29T01:57:38;9.20;;;3.45;;
58516;SDS011;44308;50.810;0.284;2022-07-29T02:00:08;8.63;;;3.38;;
58516;SDS011;44308;50.810;0.284;2022-07-29T02:02:35;15.95;;;3.58;;
58516;SDS011;44308;50.810;0.284;2022-07-29T02:05:05;22.00;;;4.20;;
58516;SDS011;44308;50.810;0.284;2022-07-29T02:07:33;18.80;;;3.83;;
58516;SDS011;44308;50.810;0.284;2022-07-29T02:10:00;15.43;;;4.22;;
58516;SDS011;44308;50.810;0.284;2022-07-29T02:12:28;12.45;;;3.97;;
58516;SDS011;44308;50.810;0.284;2022-07-29T02:14:57;7.80;;;3.42;;
58516;SDS011;44308;50.810;0.284;2022-07-29T02:17:27;10.10;;;3.08;;
58516;SDS011;44308;50.810;0.284;2022-07-29T02:20:00;8.27;;;4.63;;
58516;SDS011;44308;50.810;0.284;2022-07-29T02:22:29;8.02;;;3.83;;
58516;SDS011;44308;50.810;0.284;2022-07-29T02:24:58;6.32;;;4.47;;
58516;SDS011;44308;50.810;0.284;2022-07-29T02:27:26;9.50;;;3.60;;
58516;SDS011;44308;50.810;0.284;2022-07-29T02:29:53;6.93;;;4.15;;
58516;SDS011;44308;50.810;0.284;2022-07-29T02:32:22;5.50;;;3.53;;
58516;SDS011;44308;50.810;0.284;2022-07-29T02:34:52;7.20;;;3.83;;
58516;SDS011;44308;50.810;0.284;2022-07-29T02:37:19;8.02;;;3.97;;
58516;SDS011;44308;50.810;0.284;2022-07-29T02:39:46;8.88;;;4.68;;
58516;SDS011;44308;50.810;0.284;2022-07-29T02:42:16;9.95;;;4.15;;
58516;SDS011;44308;50.810;0.284;2022-07-29T02:44:43;6.15;;;3.60;;
58516;SDS011;44308;50.810;0.284;2022-07-29T02:52:54;11.35;;;4.30;;
58516;SDS011;44308;50.810;0.284;2022-07-29T02:55:40;9.77;;;4.00;;
58516;SDS011;44308;50.810;0.284;2022-07-29T02:58:19;6.80;;;4.28;;
58516;SDS011;44308;50.810;0.284;2022-07-29T03:00:53;14.57;;;4.43;;
58516;SDS011;44308;50.810;0.284;2022-07-29T03:03:25;8.02;;;3.95;;
58516;SDS011;44308;50.810;0.284;2022-07-29T03:05:59;7.88;;;4.20;;
58516;SDS011;44308;50.810;0.284;2022-07-29T03:08:27;5.25;;;3.80;;
58516;SDS011;44308;50.810;0.284;2022-07-29T03:10:55;11.27;;;4.45;;
58516;SDS011;44308;50.810;0.284;2022-07-29T03:13:21;7.65;;;4.10;;
58516;SDS011;44308;50.810;0.284;2022-07-29T03:15:47;6.03;;;3.72;;
58516;SDS011;44308;50.810;0.284;2022-07-29T03:18:14;5.53;;;4.40;;
58516;SDS011;44308;50.810;0.284;2022-07-29T03:20:40;7.22;;;4.35;;
58516;SDS011;44308;50.810;0.284;2022-07-29T03:23:07;9.48;;;4.95;;
58516;SDS011;44308;50.810;0.284;2022-07-29T03:25:34;7.72;;;4.00;;
58516;SDS011;44308;50.810;0.284;2022-07-29T03:27:59;5.60;;;4.10;;
58516;SDS011;44308;50.810;0.284;2022-07-29T03:30:25;9.20;;;4.32;;
58516;SDS011;44308;50.810;0.284;2022-07-29T03:32:52;6.18;;;4.38;;
58516;SDS011;44308;50.810;0.284;2022-07-29T03:35:19;15.65;;;4.85;;
58516;SDS011;44308;50.810;0.284;2022-07-29T03:37:45;8.85;;;5.10;;
58516;SDS011;44308;50.810;0.284;2022-07-29T03:40:11;9.43;;;5.25;;
58516;SDS011;44308;50.810;0.284;2022-07-29T03:42:44;12.80;;;5.18;;
58516;SDS011;44308;50.810;0.284;2022-07-29T03:45:12;13.38;;;4.65;;
58516;SDS011;44308;50.810;0.284;2022-07-29T03:47:43;10.30;;;4.72;;
58516;SDS011;44308;50.810;0.284;2022-07-29T03:50:15;8.52;;;5.00;;
58516;SDS011;44308;50.810;0.284;2022-07-29T03:52:44;13.93;;;5.32;;
58516;SDS011;44308;50.810;0.284;2022-07-29T03:55:13;9.38;;;4.68;;
58516;SDS011;44308;50.810;0.284;2022-07-29T03:57:40;8.50;;;4.53;;
58516;SDS011;44308;50.810;0.284;2022-07-29T04:00:07;5.63;;;4.53;;
58516;SDS011;44308;50.810;0.284;2022-07-29T04:02:34;7.28;;;4.53;;
58516;SDS011;44308;50.810;0.284;2022-07-29T04:05:03;7.15;;;4.47;;
58516;SDS011;44308;50.810;0.284;2022-07-29T04:07:29;10.25;;;5.50;;
58516;SDS011;44308;50.810;0.284;2022-07-29T04:09:55;7.25;;;4.85;;
58516;SDS011;44308;50.810;0.284;2022-07-29T04:12:21;14.45;;;5.13;;
58516;SDS011;44308;50.810;0.284;2022-07-29T04:14:47;7.55;;;4.90;;
58516;SDS011;44308;50.810;0.284;2022-07-29T04:17:13;7.53;;;4.30;;
58516;SDS011;44308;50.810;0.284;2022-07-29T04:19:39;6.40;;;4.63;;
58516;SDS011;44308;50.810;0.284;2022-07-29T04:22:05;10.52;;;5.07;;
58516;SDS011;44308;50.810;0.284;2022-07-29T04:24:31;12.27;;;5.97;;
58516;SDS011;44308;50.810;0.284;2022-07-29T04:26:56;6.22;;;4.93;;
58516;SDS011;44308;50.810;0.284;2022-07-29T04:29:22;6.70;;;4.85;;
58516;SDS011;44308;50.810;0.284;2022-07-29T04:31:48;6.40;;;4.72;;
58516;SDS011;44308;50.810;0.284;2022-07-29T04:34:15;7.20;;;4.90;;
58516;SDS011;44308;50.810;0.284;2022-07-29T04:36:40;6.00;;;5.15;;
58516;SDS011;44308;50.810;0.284;2022-07-29T04:39:06;11.25;;;4.88;;
58516;SDS011;44308;50.810;0.284;2022-07-29T04:41:32;9.25;;;5.38;;
58516;SDS011;44308;50.810;0.284;2022-07-29T04:44:00;12.23;;;4.80;;
58516;SDS011;44308;50.810;0.284;2022-07-29T04:46:29;7.70;;;4.25;;
58516;SDS011;44308;50.810;0.284;2022-07-29T04:48:55;7.60;;;4.88;;
58516;SDS011;44308;50.810;0.284;2022-07-29T04:51:21;12.55;;;5.03;;
58516;SDS011;44308;50.810;0.284;2022-07-29T04:53:49;7.57;;;4.57;;
58516;SDS011;44308;50.810;0.284;2022-07-29T04:56:14;14.23;;;5.40;;
58516;SDS011;44308;50.810;0.284;2022-07-29T04:58:40;6.90;;;4.38;;
58516;SDS011;44308;50.810;0.284;2022-07-29T05:01:06;7.78;;;4.80;;
58516;SDS011;44308;50.810;0.284;2022-07-29T05:03:33;10.18;;;4.57;;
58516;SDS011;44308;50.810;0.284;2022-07-29T05:05:58;9.57;;;4.85;;
58516;SDS011;44308;50.810;0.284;2022-07-29T05:08:24;9.32;;;4.43;;
58516;SDS011;44308;50.810;0.284;2022-07-29T05:10:50;10.57;;;4.70;;
58516;SDS011;44308;50.810;0.284;2022-07-29T05:13:17;6.18;;;4.28;;
58516;SDS011;44308;50.810;0.284;2022-07-29T05:15:42;7.75;;;5.05;;
58516;SDS011;44308;50.810;0.284;2022-07-29T05:18:08;7.03;;;4.25;;
58516;SDS011;44308;50.810;0.284;2022-07-29T05:20:34;9.50;;;4.13;;
58516;SDS011;44308;50.810;0.284;2022-07-29T05:23:00;15.13;;;4.50;;
58516;SDS011;44308;50.810;0.284;2022-07-29T05:25:27;8.27;;;4.28;;
58516;SDS011;44308;50.810;0.284;2022-07-29T05:27:56;9.23;;;3.75;;
58516;SDS011;44308;50.810;0.284;2022-07-29T05:30:23;7.25;;;3.30;;
58516;SDS011;44308;50.810;0.284;2022-07-29T05:32:48;12.98;;;4.13;;
58516;SDS011;44308;50.810;0.284;2022-07-29T05:35:15;9.27;;;4.03;;
58516;SDS011;44308;50.810;0.284;2022-07-29T05:37:41;9.60;;;4.00;;
58516;SDS011;44308;50.810;0.284;2022-07-29T05:40:07;10.63;;;3.55;;
58516;SDS011;44308;50.810;0.284;2022-07-29T05:42:34;6.63;;;4.05;;
58516;SDS011;44308;50.810;0.284;2022-07-29T05:45:00;7.07;;;3.88;;
58516;SDS011;44308;50.810;0.284;2022-07-29T05:47:27;6.20;;;3.50;;
58516;SDS011;44308;50.810;0.284;2022-07-29T05:49:52;10.00;;;3.67;;
58516;SDS011;44308;50.810;0.284;2022-07-29T05:52:19;7.00;;;4.68;;
58516;SDS011;44308;50.810;0.284;2022-07-29T05:54:45;6.28;;;3.85;;
58516;SDS011;44308;50.810;0.284;2022-07-29T05:57:15;14.07;;;4.18;;
58516;SDS011;44308;50.810;0.284;2022-07-29T05:59:44;6.88;;;3.97;;
58516;SDS011;44308;50.810;0.284;2022-07-29T06:02:10;6.45;;;3.63;;
58516;SDS011;44308;50.810;0.284;2022-07-29T06:04:37;13.38;;;3.92;;
58516;SDS011;44308;50.810;0.284;2022-07-29T06:07:03;16.20;;;3.90;;
58516;SDS011;44308;50.810;0.284;2022-07-29T06:09:30;10.05;;;3.65;;
58516;SDS011;44308;50.810;0.284;2022-07-29T06:11:56;8.77;;;2.97;;
58516;SDS011;44308;50.810;0.284;2022-07-29T06:14:24;7.53;;;3.30;;
58516;SDS011;44308;50.810;0.284;2022-07-29T06:16:51;8.15;;;3.80;;
58516;SDS011;44308;50.810;0.284;2022-07-29T06:19:18;11.52;;;3.90;;
58516;SDS011;44308;50.810;0.284;2022-07-29T06:21:44;7.47;;;3.70;;
58516;SDS011;44308;50.810;0.284;2022-07-29T06:24:12;11.02;;;4.28;;
58516;SDS011;44308;50.810;0.284;2022-07-29T06:26:39;8.48;;;3.60;;
58516;SDS011;44308;50.810;0.284;2022-07-29T06:29:05;10.20;;;3.78;;
58516;SDS011;44308;50.810;0.284;2022-07-29T06:31:31;7.07;;;3.45;;
58516;SDS011;44308;50.810;0.284;2022-07-29T06:33:57;9.95;;;3.47;;
58516;SDS011;44308;50.810;0.284;2022-07-29T06:36:26;14.57;;;4.15;;
58516;SDS011;44308;50.810;0.284;2022-07-29T06:38:52;7.93;;;2.92;;
58516;SDS011;44308;50.810;0.284;2022-07-29T06:41:17;7.60;;;3.58;;
58516;SDS011;44308;50.810;0.284;2022-07-29T06:43:44;9.93;;;3.40;;
58516;SDS011;44308;50.810;0.284;2022-07-29T06:46:11;4.63;;;3.25;;
58516;SDS011;44308;50.810;0.284;2022-07-29T06:48:39;6.35;;;3.38;;
58516;SDS011;44308;50.810;0.284;2022-07-29T06:51:10;16.33;;;3.55;;
58516;SDS011;44308;50.810;0.284;2022-07-29T06:53:39;6.05;;;2.97;;
58516;SDS011;44308;50.810;0.284;2022-07-29T06:56:06;7.43;;;2.90;;
58516;SDS011;44308;50.810;0.284;2022-07-29T06:58:34;7.47;;;3.38;;
58516;SDS011;44308;50.810;0.284;2022-07-29T07:01:03;6.88;;;2.85;;
58516;SDS011;44308;50.810;0.284;2022-07-29T07:03:30;5.90;;;2.33;;
58516;SDS011;44308;50.810;0.284;2022-07-29T07:05:57;7.97;;;2.78;;
58516;SDS011;44308;50.810;0.284;2022-07-29T07:08:23;4.38;;;2.80;;
58516;SDS011;44308;50.810;0.284;2022-07-29T07:10:49;11.30;;;2.75;;
58516;SDS011;44308;50.810;0.284;2022-07-29T07:13:16;7.22;;;2.45;;
58516;SDS011;44308;50.810;0.284;2022-07-29T07:15:42;5.95;;;2.60;;
58516;SDS011;44308;50.810;0.284;2022-07-29T07:18:10;6.05;;;2.72;;
58516;SDS011;44308;50.810;0.284;2022-07-29T07:20:36;6.30;;;2.05;;
58516;SDS011;44308;50.810;0.284;2022-07-29T07:23:02;7.32;;;2.72;;
58516;SDS011;44308;50.810;0.284;2022-07-29T07:25:31;5.63;;;2.20;;
58516;SDS011;44308;50.810;0.284;2022-07-29T07:27:56;5.85;;;2.38;;
58516;SDS011;44308;50.810;0.284;2022-07-29T07:30:23;4.72;;;2.60;;
58516;SDS011;44308;50.810;0.284;2022-07-29T07:32:48;10.88;;;2.47;;
58516;SDS011;44308;50.810;0.284;2022-07-29T07:35:16;8.85;;;3.28;;
58516;SDS011;44308;50.810;0.284;2022-07-29T07:37:41;28.30;;;4.32;;
58516;SDS011;44308;50.810;0.284;2022-07-29T07:40:08;6.93;;;2.97;;
58516;SDS011;44308;50.810;0.284;2022-07-29T07:42:35;5.55;;;3.05;;
58516;SDS011;44308;50.810;0.284;2022-07-29T07:45:02;8.02;;;3.15;;
58516;SDS011;44308;50.810;0.284;2022-07-29T07:47:28;15.82;;;3.83;;
58516;SDS011;44308;50.810;0.284;2022-07-29T07:49:53;12.27;;;2.95;;
58516;SDS011;44308;50.810;0.284;2022-07-29T07:52:20;8.93;;;2.83;;
58516;SDS011;44308;50.810;0.284;2022-07-29T07:54:47;5.05;;;2.45;;
58516;SDS011;44308;50.810;0.284;2022-07-29T07:57:13;7.20;;;2.33;;
58516;SDS011;44308;50.810;0.284;2022-07-29T07:59:40;7.50;;;2.78;;
58516;SDS011;44308;50.810;0.284;2022-07-29T08:02:06;22.08;;;3.72;;
58516;SDS011;44308;50.810;0.284;2022-07-29T08:04:32;7.95;;;1.95;;
58516;SDS011;44308;50.810;0.284;2022-07-29T08:06:58;2.92;;;1.80;;
58516;SDS011;44308;50.810;0.284;2022-07-29T08:09:26;7.43;;;2.35;;
58516;SDS011;44308;50.810;0.284;2022-07-29T08:11:52;3.13;;;2.03;;
58516;SDS011;44308;50.810;0.284;2022-07-29T08:14:18;7.78;;;2.13;;
58516;SDS011;44308;50.810;0.284;2022-07-29T08:16:44;5.50;;;2.25;;
58516;SDS011;44308;50.810;0.284;2022-07-29T08:19:11;5.95;;;2.22;;
58516;SDS011;44308;50.810;0.284;2022-07-29T08:21:37;5.22;;;1.90;;
58516;SDS011;44308;50.810;0.284;2022-07-29T08:24:03;5.22;;;1.63;;
58516;SDS011;44308;50.810;0.284;2022-07-29T08:26:47;12.80;;;2.75;;
58516;SDS011;44308;50.810;0.284;2022-07-29T08:29:13;4.90;;;2.10;;
58516;SDS011;44308;50.810;0.284;2022-07-29T08:31:39;5.47;;;2.40;;
58516;SDS011;44308;50.810;0.284;2022-07-29T08:34:05;5.28;;;2.22;;
58516;SDS011;44308;50.810;0.284;2022-07-29T08:36:32;8.65;;;1.90;;
58516;SDS011;44308;50.810;0.284;2022-07-29T08:38:58;14.30;;;2.22;;
58516;SDS011;44308;50.810;0.284;2022-07-29T08:41:25;5.70;;;1.92;;
58516;SDS011;44308;50.810;0.284;2022-07-29T08:43:53;3.80;;;1.77;;
58516;SDS011;44308;50.810;0.284;2022-07-29T08:46:19;4.93;;;2.28;;
58516;SDS011;44308;50.810;0.284;2022-07-29T08:48:46;4.18;;;2.35;;
58516;SDS011;44308;50.810;0.284;2022-07-29T08:51:17;5.03;;;2.30;;
58516;SDS011;44308;50.810;0.284;2022-07-29T08:56:12;4.95;;;2.05;;
58516;SDS011;44308;50.810;0.284;2022-07-29T08:58:43;8.75;;;2.45;;
58516;SDS011;44308;50.810;0.284;2022-07-29T09:01:10;6.60;;;1.80;;
58516;SDS011;44308;50.810;0.284;2022-07-29T09:03:39;9.90;;;2.75;;
58516;SDS011;44308;50.810;0.284;2022-07-29T09:06:06;6.43;;;1.83;;
58516;SDS011;44308;50.810;0.284;2022-07-29T09:08:33;4.95;;;2.25;;
58516;SDS011;44308;50.810;0.284;2022-07-29T09:11:02;3.33;;;2.15;;
58516;SDS011;44308;50.810;0.284;2022-07-29T09:13:29;6.93;;;2.20;;
58516;SDS011;44308;50.810;0.284;2022-07-29T09:15:54;4.57;;;2.25;;
58516;SDS011;44308;50.810;0.284;2022-07-29T09:18:39;3.88;;;2.33;;
58516;SDS011;44308;50.810;0.284;2022-07-29T09:21:07;5.40;;;2.10;;
58516;SDS011;44308;50.810;0.284;2022-07-29T09:24:19;13.18;;;3.63;;
58516;SDS011;44308;50.810;0.284;2022-07-29T09:26:45;9.30;;;2.58;;
58516;SDS011;44308;50.810;0.284;2022-07-29T09:29:15;4.60;;;2.17;;
58516;SDS011;44308;50.810;0.284;2022-07-29T09:31:47;4.70;;;2.15;;
58516;SDS011;44308;50.810;0.284;2022-07-29T09:34:15;12.65;;;2.58;;
58516;SDS011;44308;50.810;0.284;2022-07-29T09:36:46;8.20;;;2.83;;
58516;SDS011;44308;50.810;0.284;2022-07-29T09:39:14;3.75;;;2.10;;
58516;SDS011;44308;50.810;0.284;2022-07-29T09:41:52;6.65;;;2.25;;
58516;SDS011;44308;50.810;0.284;2022-07-29T09:44:20;6.60;;;1.98;;
58516;SDS011;44308;50.810;0.284;2022-07-29T09:46:54;3.13;;;1.88;;
58516;SDS011;44308;50.810;0.284;2022-07-29T09:49:31;6.47;;;1.90;;
58516;SDS011;44308;50.810;0.284;2022-07-29T09:52:05;5.78;;;2.20;;
58516;SDS011;44308;50.810;0.284;2022-07-29T09:54:34;7.75;;;2.38;;
58516;SDS011;44308;50.810;0.284;2022-07-29T09:57:05;3.60;;;2.55;;
58516;SDS011;44308;50.810;0.284;2022-07-29T09:59:33;7.65;;;2.08;;
58516;SDS011;44308;50.810;0.284;2022-07-29T10:01:59;7.05;;;2.60;;
58516;SDS011;44308;50.810;0.284;2022-07-29T10:04:38;5.43;;;2.67;;
58516;SDS011;44308;50.810;0.284;2022-07-29T10:07:07;5.15;;;2.47;;
58516;SDS011;44308;50.810;0.284;2022-07-29T10:09:34;8.48;;;2.53;;
58516;SDS011;44308;50.810;0.284;2022-07-29T10:12:04;4.15;;;2.45;;
58516;SDS011;44308;50.810;0.284;2022-07-29T10:14:39;6.03;;;2.50;;
58516;SDS011;44308;50.810;0.284;2022-07-29T10:17:07;6.55;;;2.72;;
58516;SDS011;44308;50.810;0.284;2022-07-29T10:19:34;4.68;;;2.63;;
58516;SDS011;44308;50.810;0.284;2022-07-29T10:22:02;5.22;;;2.63;;
58516;SDS011;44308;50.810;0.284;2022-07-29T10:24:31;4.72;;;2.63;;
58516;SDS011;44308;50.810;0.284;2022-07-29T10:27:01;10.00;;;2.83;;
58516;SDS011;44308;50.810;0.284;2022-07-29T10:29:28;8.25;;;3.17;;
58516;SDS011;44308;50.810;0.284;2022-07-29T10:34:57;5.85;;;2.47;;
58516;SDS011;44308;50.810;0.284;2022-07-29T10:37:56;6.70;;;2.72;;
58516;SDS011;44308;50.810;0.284;2022-07-29T10:44:00;6.28;;;2.92;;
58516;SDS011;44308;50.810;0.284;2022-07-29T10:46:28;6.00;;;3.10;;
58516;SDS011;44308;50.810;0.284;2022-07-29T10:54:17;7.82;;;3.33;;
58516;SDS011;44308;50.810;0.284;2022-07-29T10:56:44;12.23;;;4.05;;
58516;SDS011;44308;50.810;0.284;2022-07-29T11:01:45;6.72;;;3.08;;
58516;SDS011;44308;50.810;0.284;2022-07-29T11:04:12;8.40;;;2.95;;
58516;SDS011;44308;50.810;0.284;2022-07-29T11:09:28;10.60;;;2.95;;
58516;SDS011;44308;50.810;0.284;2022-07-29T11:11:56;12.00;;;2.80;;
58516;SDS011;44308;50.810;0.284;2022-07-29T11:23:56;8.32;;;3.35;;
58516;SDS011;44308;50.810;0.284;2022-07-29T11:28:52;19.35;;;3.35;;
58516;SDS011;44308;50.810;0.284;2022-07-29T11:31:32;10.10;;;3.13;;
58516;SDS011;44308;50.810;0.284;2022-07-29T11:39:35;10.77;;;3.60;;
58516;SDS011;44308;50.810;0.284;2022-07-29T11:47:23;10.23;;;4.00;;
58516;SDS011;44308;50.810;0.284;2022-07-29T11:49:50;6.10;;;2.95;;
58516;SDS011;44308;50.810;0.284;2022-07-29T11:52:17;7.38;;;3.42;;
58516;SDS011;44308;50.810;0.284;2022-07-29T11:54:46;10.10;;;3.28;;
58516;SDS011;44308;50.810;0.284;2022-07-29T11:57:13;13.98;;;3.33;;
58516;SDS011;44308;50.810;0.284;2022-07-29T11:59:42;6.72;;;3.25;;
58516;SDS011;44308;50.810;0.284;2022-07-29T12:02:09;13.18;;;3.40;;
58516;SDS011;44308;50.810;0.284;2022-07-29T12:07:32;7.93;;;3.25;;
58516;SDS011;44308;50.810;0.284;2022-07-29T12:09:59;9.48;;;3.50;;
58516;SDS011;44308;50.810;0.284;2022-07-29T12:12:26;8.70;;;3.50;;
58516;SDS011;44308;50.810;0.284;2022-07-29T12:14:53;14.00;;;4.68;;
58516;SDS011;44308;50.810;0.284;2022-07-29T12:17:30;6.20;;;3.35;;
58516;SDS011;44308;50.810;0.284;2022-07-29T12:19:58;8.05;;;3.40;;
58516;SDS011;44308;50.810;0.284;2022-07-29T12:22:30;12.55;;;3.67;;
58516;SDS011;44308;50.810;0.284;2022-07-29T12:25:04;12.50;;;3.35;;
58516;SDS011;44308;50.810;0.284;2022-07-29T12:27:39;15.68;;;3.72;;
58516;SDS011;44308;50.810;0.284;2022-07-29T12:30:06;7.65;;;3.42;;
58516;SDS011;44308;50.810;0.284;2022-07-29T12:32:38;12.02;;;4.35;;
58516;SDS011;44308;50.810;0.284;2022-07-29T12:35:09;11.80;;;3.67;;
58516;SDS011;44308;50.810;0.284;2022-07-29T12:37:43;12.98;;;4.20;;
58516;SDS011;44308;50.810;0.284;2022-07-29T12:40:10;7.80;;;3.70;;
58516;SDS011;44308;50.810;0.284;2022-07-29T12:42:38;10.43;;;4.50;;
58516;SDS011;44308;50.810;0.284;2022-07-29T12:45:04;6.43;;;3.10;;
58516;SDS011;44308;50.810;0.284;2022-07-29T12:47:50;8.13;;;3.28;;
58516;SDS011;44308;50.810;0.284;2022-07-29T12:50:17;5.03;;;3.47;;
58516;SDS011;44308;50.810;0.284;2022-07-29T12:52:43;7.18;;;3.20;;
58516;SDS011;44308;50.810;0.284;2022-07-29T12:58:09;7.95;;;4.15;;
58516;SDS011;44308;50.810;0.284;2022-07-29T13:00:35;6.75;;;3.53;;
58516;SDS011;44308;50.810;0.284;2022-07-29T13:03:01;10.38;;;4.25;;
58516;SDS011;44308;50.810;0.284;2022-07-29T13:05:43;4.93;;;2.80;;
58516;SDS011;44308;50.810;0.284;2022-07-29T13:08:10;7.55;;;3.75;;
58516;SDS011;44308;50.810;0.284;2022-07-29T13:10:36;8.68;;;3.42;;
58516;SDS011;44308;50.810;0.284;2022-07-29T13:13:06;8.90;;;3.13;;
58516;SDS011;44308;50.810;0.284;2022-07-29T13:15:41;9.25;;;3.28;;
58516;SDS011;44308;50.810;0.284;2022-07-29T13:20:57;13.73;;;3.53;;
58516;SDS011;44308;50.810;0.284;2022-07-29T13:23:41;7.90;;;3.63;;
58516;SDS011;44308;50.810;0.284;2022-07-29T13:26:08;5.07;;;2.58;;
58516;SDS011;44308;50.810;0.284;2022-07-29T13:28:34;6.63;;;2.50;;
58516;SDS011;44308;50.810;0.284;2022-07-29T13:31:00;9.48;;;3.13;;
58516;SDS011;44308;50.810;0.284;2022-07-29T13:33:29;6.15;;;3.25;;
58516;SDS011;44308;50.810;0.284;2022-07-29T13:35:58;14.00;;;3.83;;
58516;SDS011;44308;50.810;0.284;2022-07-29T13:38:24;6.78;;;3.13;;
58516;SDS011;44308;50.810;0.284;2022-07-29T13:40:53;6.40;;;3.15;;
58516;SDS011;44308;50.810;0.284;2022-07-29T13:43:22;7.85;;;3.65;;
58516;SDS011;44308;50.810;0.284;2022-07-29T13:45:50;11.20;;;3.20;;
58516;SDS011;44308;50.810;0.284;2022-07-29T13:48:17;9.45;;;3.03;;
58516;SDS011;44308;50.810;0.284;2022-07-29T13:50:43;12.35;;;3.22;;
58516;SDS011;44308;50.810;0.284;2022-07-29T13:53:09;8.95;;;3.45;;
58516;SDS011;44308;50.810;0.284;2022-07-29T13:55:35;7.03;;;3.20;;
58516;SDS011;44308;50.810;0.284;2022-07-29T13:58:01;7.25;;;3.22;;
58516;SDS011;44308;50.810;0.284;2022-07-29T14:00:27;7.40;;;2.67;;
58516;SDS011;44308;50.810;0.284;2022-07-29T14:02:55;4.82;;;2.75;;
58516;SDS011;44308;50.810;0.284;2022-07-29T14:05:23;17.17;;;3.65;;
58516;SDS011;44308;50.810;0.284;2022-07-29T14:07:49;7.28;;;3.38;;
58516;SDS011;44308;50.810;0.284;2022-07-29T14:10:15;10.82;;;3.78;;
58516;SDS011;44308;50.810;0.284;2022-07-29T14:12:41;5.75;;;2.80;;
58516;SDS011;44308;50.810;0.284;2022-07-29T14:15:07;6.15;;;3.15;;
58516;SDS011;44308;50.810;0.284;2022-07-29T14:17:33;7.00;;;3.63;;
58516;SDS011;44308;50.810;0.284;2022-07-29T14:19:59;9.10;;;3.67;;
58516;SDS011;44308;50.810;0.284;2022-07-29T14:22:28;5.60;;;2.97;;
58516;SDS011;44308;50.810;0.284;2022-07-29T14:24:55;6.40;;;3.25;;
58516;SDS011;44308;50.810;0.284;2022-07-29T14:27:21;15.20;;;3.97;;
58516;SDS011;44308;50.810;0.284;2022-07-29T14:29:49;7.57;;;3.47;;
58516;SDS011;44308;50.810;0.284;2022-07-29T14:32:23;15.85;;;3.97;;
58516;SDS011;44308;50.810;0.284;2022-07-29T14:34:50;9.25;;;3.25;;
58516;SDS011;44308;50.810;0.284;2022-07-29T14:37:16;12.55;;;3.08;;
58516;SDS011;44308;50.810;0.284;2022-07-29T14:39:51;13.65;;;3.47;;
58516;SDS011;44308;50.810;0.284;2022-07-29T14:42:17;6.85;;;3.15;;
58516;SDS011;44308;50.810;0.284;2022-07-29T14:44:45;18.35;;;4.10;;
58516;SDS011;44308;50.810;0.284;2022-07-29T14:47:13;8.25;;;3.50;;
58516;SDS011;44308;50.810;0.284;2022-07-29T14:49:41;6.03;;;2.95;;
58516;SDS011;44308;50.810;0.284;2022-07-29T14:52:07;9.00;;;3.60;;
58516;SDS011;44308;50.810;0.284;2022-07-29T14:54:36;5.75;;;3.10;;
58516;SDS011;44308;50.810;0.284;2022-07-29T14:57:03;9.00;;;3.55;;
58516;SDS011;44308;50.810;0.284;2022-07-29T14:59:29;8.98;;;3.00;;
58516;SDS011;44308;50.810;0.284;2022-07-29T15:02:00;9.60;;;3.03;;
58516;SDS011;44308;50.810;0.284;2022-07-29T15:06:59;10.90;;;2.40;;
58516;SDS011;44308;50.810;0.284;2022-07-29T15:09:29;5.85;;;2.35;;
58516;SDS011;44308;50.810;0.284;2022-07-29T15:11:55;9.50;;;3.30;;
58516;SDS011;44308;50.810;0.284;2022-07-29T15:14:21;5.85;;;2.67;;
58516;SDS011;44308;50.810;0.284;2022-07-29T15:17:13;8.82;;;2.58;;
58516;SDS011;44308;50.810;0.284;2022-07-29T15:19:46;8.60;;;2.88;;
58516;SDS011;44308;50.810;0.284;2022-07-29T15:22:13;5.60;;;2.80;;
58516;SDS011;44308;50.810;0.284;2022-07-29T15:24:42;7.50;;;2.95;;
58516;SDS011;44308;50.810;0.284;2022-07-29T15:27:17;12.82;;;3.35;;
58516;SDS011;44308;50.810;0.284;2022-07-29T15:29:48;7.47;;;2.72;;
58516;SDS011;44308;50.810;0.284;2022-07-29T15:32:14;5.30;;;2.53;;
58516;SDS011;44308;50.810;0.284;2022-07-29T15:34:40;4.85;;;2.33;;
58516;SDS011;44308;50.810;0.284;2022-07-29T15:37:06;7.53;;;2.83;;
58516;SDS011;44308;50.810;0.284;2022-07-29T15:39:32;5.47;;;2.25;;
58516;SDS011;44308;50.810;0.284;2022-07-29T15:41:58;8.13;;;2.35;;
58516;SDS011;44308;50.810;0.284;2022-07-29T15:44:25;6.35;;;2.60;;
58516;SDS011;44308;50.810;0.284;2022-07-29T15:46:51;5.78;;;2.00;;
58516;SDS011;44308;50.810;0.284;2022-07-29T15:49:37;5.30;;;2.65;;
58516;SDS011;44308;50.810;0.284;2022-07-29T15:52:09;6.82;;;2.20;;
58516;SDS011;44308;50.810;0.284;2022-07-29T15:54:48;16.27;;;2.80;;
58516;SDS011;44308;50.810;0.284;2022-07-29T15:57:14;6.32;;;2.70;;
58516;SDS011;44308;50.810;0.284;2022-07-29T15:59:40;5.35;;;2.45;;
58516;SDS011;44308;50.810;0.284;2022-07-29T16:02:05;8.90;;;3.22;;
58516;SDS011;44308;50.810;0.284;2022-07-29T16:04:32;9.15;;;2.75;;